Time;durP1;ratioP1;P1;durP2;ratioP2;P2;SDS_P1;SDS_P2;PMS_P1;PMS_P2;Temp;Humidity;BMP_temperature;BMP_pressure;BME280_temperature;BME280_humidity;BME280_pressure;Samples;Min_cycle;Max_cycle;Signal;HPM_P1;HPM_P2
2022/04/11 00:01:28;;;;;;;6.87;1.73;;;5.90;99.90;;;;;;4938058;29;20223;-71
2022/04/11 00:03:53;;;;;;;5.10;1.77;;;5.90;99.90;;;;;;4943114;28;20615;-71
2022/04/11 00:06:19;;;;;;;6.50;1.77;;;5.80;99.90;;;;;;4955396;28;20203;-71
2022/04/11 00:08:44;;;;;;;4.57;1.90;;;5.80;99.90;;;;;;4936882;29;20243;-71
2022/04/11 00:11:10;;;;;;;7.17;2.47;;;5.80;99.90;;;;;;4955062;28;20211;-70
2022/04/11 00:13:35;;;;;;;5.93;1.70;;;5.80;99.90;;;;;;4955143;29;20229;-71
2022/04/11 00:16:01;;;;;;;4.67;1.50;;;5.80;99.90;;;;;;4937585;28;20242;-71
2022/04/11 00:18:26;;;;;;;6.37;1.93;;;5.80;99.90;;;;;;4954396;29;20667;-70
2022/04/11 00:20:52;;;;;;;7.53;2.00;;;5.80;99.90;;;;;;4954938;29;20408;-70
2022/04/11 00:23:18;;;;;;;3.63;1.30;;;5.80;99.90;;;;;;4937734;29;20210;-71
2022/04/11 00:25:44;;;;;;;8.10;1.60;;;5.80;99.90;;;;;;4954325;28;20203;-71
2022/04/11 00:28:09;;;;;;;4.53;1.60;;;5.70;99.90;;;;;;4954009;28;20233;-70
2022/04/11 00:30:35;;;;;;;3.07;1.50;;;5.60;99.90;;;;;;4936873;29;20186;-71
2022/04/11 00:33:00;;;;;;;6.87;1.60;;;5.60;99.90;;;;;;4948610;29;20559;-70
2022/04/11 00:35:26;;;;;;;3.20;1.47;;;5.60;99.90;;;;;;4928390;29;20219;-71
2022/04/11 00:37:52;;;;;;;3.90;1.80;;;5.50;99.90;;;;;;4935079;29;20223;-71
2022/04/11 00:40:19;;;;;;;10.20;2.37;;;5.50;99.90;;;;;;4917692;29;20212;-71
2022/04/11 00:42:47;;;;;;;3.60;1.40;;;5.50;99.90;;;;;;4919742;29;20175;-71
2022/04/11 00:45:13;;;;;;;6.93;1.90;;;5.50;99.90;;;;;;4935639;29;20294;-71
2022/04/11 00:47:39;;;;;;;5.10;1.73;;;5.40;99.90;;;;;;4938694;29;20235;-69
2022/04/11 00:50:08;;;;;;;4.47;1.50;;;5.40;99.90;;;;;;4919579;29;20218;-70
2022/04/11 00:52:37;;;;;;;3.13;1.47;;;5.40;99.90;;;;;;4939960;29;20266;-71
2022/04/11 00:55:04;;;;;;;8.53;1.90;;;5.40;99.90;;;;;;4938258;29;20286;-71
2022/04/11 00:57:30;;;;;;;3.50;1.30;;;5.30;99.90;;;;;;4954099;28;20719;-70
2022/04/11 00:59:56;;;;;;;7.40;1.57;;;5.30;99.90;;;;;;4950192;28;20211;-70
2022/04/11 01:02:22;;;;;;;8.83;2.23;;;5.20;99.90;;;;;;4927135;29;20219;-71
2022/04/11 01:04:47;;;;;;;5.70;1.37;;;5.20;99.90;;;;;;4952531;28;20213;-71
2022/04/11 01:07:13;;;;;;;7.97;2.07;;;5.20;99.90;;;;;;4936482;29;20214;-71
2022/04/11 01:09:40;;;;;;;7.50;2.13;;;5.10;99.90;;;;;;4948421;29;20187;-71
2022/04/11 01:12:06;;;;;;;14.47;2.10;;;5.10;99.90;;;;;;4953758;28;20219;-70
2022/04/11 01:14:32;;;;;;;5.10;2.17;;;5.00;99.90;;;;;;4953780;29;20706;-71
2022/04/11 01:16:58;;;;;;;5.70;2.03;;;5.00;99.90;;;;;;4953644;28;20215;-71
2022/04/11 01:19:25;;;;;;;8.00;2.10;;;5.00;99.90;;;;;;4952765;29;20211;-72
2022/04/11 01:21:51;;;;;;;2.77;1.67;;;4.90;99.90;;;;;;4953976;28;20820;-72
2022/04/11 01:24:20;;;;;;;5.70;1.70;;;4.90;99.90;;;;;;4936997;29;20233;-71
2022/04/11 01:26:47;;;;;;;4.53;1.70;;;4.80;99.90;;;;;;4953623;28;20219;-71
2022/04/11 01:29:13;;;;;;;4.77;1.70;;;4.80;99.90;;;;;;4935639;29;20233;-71
2022/04/11 01:31:38;;;;;;;4.23;1.40;;;4.80;99.90;;;;;;4946718;29;20692;-71
2022/04/11 01:34:04;;;;;;;3.57;1.60;;;4.70;99.90;;;;;;4936371;28;20179;-71
2022/04/11 01:36:30;;;;;;;4.13;1.50;;;4.70;99.90;;;;;;4953819;28;20195;-70
2022/04/11 01:38:55;;;;;;;6.50;1.50;;;4.70;99.90;;;;;;4952668;29;20210;-70
2022/04/11 01:41:21;;;;;;;3.07;1.40;;;4.70;99.90;;;;;;4936249;29;20218;-70
2022/04/11 01:43:47;;;;;;;5.00;1.40;;;4.70;99.90;;;;;;4953427;29;20202;-71
2022/04/11 01:46:13;;;;;;;4.93;1.70;;;4.60;99.90;;;;;;4936185;29;20215;-71
2022/04/11 01:48:38;;;;;;;7.87;1.70;;;4.60;99.90;;;;;;4952949;29;20187;-70
2022/04/11 01:51:04;;;;;;;6.33;1.77;;;4.60;99.90;;;;;;4953334;29;20562;-70
2022/04/11 01:53:30;;;;;;;3.37;1.50;;;4.60;99.90;;;;;;4953298;28;20306;-71
2022/04/11 01:55:56;;;;;;;6.03;2.00;;;4.60;99.90;;;;;;4953391;28;20289;-70
2022/04/11 01:58:21;;;;;;;4.40;1.27;;;4.60;99.90;;;;;;4935301;29;20746;-70
2022/04/11 02:00:47;;;;;;;6.10;2.00;;;4.60;99.90;;;;;;4951625;29;20209;-70
2022/04/11 02:03:13;;;;;;;4.30;1.83;;;4.60;99.90;;;;;;4932001;29;20306;-71
2022/04/11 02:05:40;;;;;;;7.00;2.17;;;4.50;99.90;;;;;;4953097;28;20218;-70
2022/04/11 02:08:07;;;;;;;3.33;1.47;;;4.50;99.90;;;;;;4935463;29;20581;-70
2022/04/11 02:10:35;;;;;;;6.00;2.23;;;4.50;99.90;;;;;;4953231;28;20211;-71
2022/04/11 02:13:00;;;;;;;4.27;1.40;;;4.50;99.90;;;;;;4953251;29;20168;-71
2022/04/11 02:15:26;;;;;;;5.07;1.80;;;4.50;99.90;;;;;;4953364;29;20275;-71
2022/04/11 02:17:51;;;;;;;7.90;2.47;;;4.50;99.90;;;;;;4935221;29;20558;-71
2022/04/11 02:20:17;;;;;;;4.73;1.90;;;4.50;99.90;;;;;;4928459;29;20211;-70
2022/04/11 02:22:50;;;;;;;3.67;1.30;;;4.40;99.90;;;;;;4942359;28;20231;-70
2022/04/11 02:25:17;;;;;;;7.37;2.40;;;4.40;99.90;;;;;;4952473;29;20218;-71
2022/04/11 02:27:43;;;;;;;6.30;1.77;;;4.40;99.90;;;;;;4952332;28;20690;-71
2022/04/11 02:30:09;;;;;;;4.00;1.77;;;4.40;99.90;;;;;;4952040;28;20566;-71
2022/04/11 02:32:35;;;;;;;5.73;1.50;;;4.40;99.90;;;;;;4952402;29;20211;-71
2022/04/11 02:35:00;;;;;;;7.43;1.73;;;4.40;99.90;;;;;;4935383;29;20208;-71
2022/04/11 02:37:26;;;;;;;2.73;1.60;;;4.40;99.90;;;;;;4935324;29;20214;-71
2022/04/11 02:39:51;;;;;;;5.10;2.17;;;4.40;99.90;;;;;;4951678;28;20175;-71
2022/04/11 02:42:28;;;;;;;11.70;2.10;;;4.40;99.90;;;;;;4935769;29;20743;-70
2022/04/11 02:44:54;;;;;;;4.50;1.90;;;4.40;99.90;;;;;;4952800;29;20203;-71
2022/04/11 02:47:20;;;;;;;3.73;1.70;;;4.40;99.90;;;;;;4952563;28;20211;-71
2022/04/11 02:49:46;;;;;;;4.10;1.77;;;4.40;99.90;;;;;;4952158;29;20261;-70
2022/04/11 02:52:13;;;;;;;6.57;2.03;;;4.40;99.90;;;;;;4946496;28;20604;-71
2022/04/11 02:54:40;;;;;;;8.80;1.70;;;4.40;99.90;;;;;;4935869;29;20179;-70
2022/04/11 02:57:06;;;;;;;6.63;1.80;;;4.30;99.90;;;;;;4952243;28;20210;-71
2022/04/11 02:59:38;;;;;;;6.77;2.10;;;4.30;99.90;;;;;;4937876;29;20215;-71
2022/04/11 03:02:04;;;;;;;3.13;1.80;;;4.30;99.90;;;;;;4959955;29;20234;-71
2022/04/11 03:04:30;;;;;;;5.57;2.20;;;4.30;99.90;;;;;;4956768;28;20222;-71
2022/04/11 03:06:56;;;;;;;5.57;1.70;;;4.30;99.90;;;;;;4953650;28;20584;-71
2022/04/11 03:09:22;;;;;;;6.70;1.70;;;4.30;99.90;;;;;;4935587;29;20269;-70
2022/04/11 03:11:48;;;;;;;7.30;1.90;;;4.30;99.90;;;;;;4953015;28;20217;-70
2022/04/11 03:14:13;;;;;;;5.73;1.90;;;4.30;99.90;;;;;;4952751;29;20210;-71
2022/04/11 03:16:40;;;;;;;6.43;1.83;;;4.30;99.90;;;;;;4952594;28;20294;-71
2022/04/11 03:19:06;;;;;;;8.00;2.13;;;4.20;99.90;;;;;;4951763;29;20179;-71
2022/04/11 03:21:32;;;;;;;2.33;1.43;;;4.30;99.90;;;;;;4947102;29;20211;-70
2022/04/11 03:23:58;;;;;;;2.73;1.80;;;4.20;99.90;;;;;;4952463;28;20215;-70
2022/04/11 03:26:23;;;;;;;4.47;1.87;;;4.20;99.90;;;;;;4953297;28;20714;-70
2022/04/11 03:28:49;;;;;;;5.53;1.97;;;4.20;99.90;;;;;;4951858;28;20266;-70
2022/04/11 03:31:14;;;;;;;5.57;2.00;;;4.20;99.90;;;;;;4952810;29;20210;-70
2022/04/11 03:33:40;;;;;;;7.23;1.80;;;4.20;99.90;;;;;;4952717;29;20280;-70
2022/04/11 03:36:05;;;;;;;4.30;2.00;;;4.10;99.90;;;;;;4952630;28;20288;-70
2022/04/11 03:38:31;;;;;;;4.93;1.67;;;4.10;99.90;;;;;;4937490;29;20230;-70
2022/04/11 03:40:56;;;;;;;5.70;1.80;;;4.10;99.90;;;;;;4955368;28;20218;-70
2022/04/11 03:43:22;;;;;;;5.20;1.90;;;4.10;99.90;;;;;;4955193;29;20265;-70
2022/04/11 03:45:47;;;;;;;5.63;1.90;;;4.10;99.90;;;;;;4955834;28;20183;-70
2022/04/11 03:48:13;;;;;;;9.43;1.67;;;4.10;99.90;;;;;;4954421;29;20228;-70
2022/04/11 03:50:39;;;;;;;6.37;1.97;;;4.00;99.90;;;;;;4937396;29;20217;-70
2022/04/11 03:53:04;;;;;;;4.97;1.50;;;4.00;99.90;;;;;;4949468;28;20265;-70
2022/04/11 03:55:30;;;;;;;4.37;2.07;;;4.00;99.90;;;;;;4937782;29;20218;-70
2022/04/11 03:57:55;;;;;;;2.50;1.43;;;4.00;99.90;;;;;;4943439;23;20227;-72
2022/04/11 04:00:21;;;;;;;4.93;1.80;;;4.00;99.90;;;;;;4937775;29;20194;-70
2022/04/11 04:02:46;;;;;;;7.37;2.07;;;4.00;99.90;;;;;;4942421;29;20196;-73
2022/04/11 04:05:12;;;;;;;3.97;2.23;;;4.00;99.90;;;;;;4950358;28;20243;-73
2022/04/11 04:07:37;;;;;;;3.17;1.80;;;4.00;99.90;;;;;;4935551;29;20579;-74
2022/04/11 04:10:04;;;;;;;5.27;2.23;;;4.00;99.90;;;;;;4935441;29;20182;-73
2022/04/11 04:12:30;;;;;;;5.43;2.00;;;4.00;99.90;;;;;;4936158;29;20190;-73
2022/04/11 04:14:55;;;;;;;7.17;2.27;;;4.00;99.90;;;;;;4935830;29;20210;-74
2022/04/11 04:17:20;;;;;;;8.03;2.73;;;4.00;99.90;;;;;;4935367;29;20269;-70
2022/04/11 04:19:46;;;;;;;5.50;2.20;;;4.00;99.90;;;;;;4917913;29;20211;-74
2022/04/11 04:22:11;;;;;;;5.37;2.40;;;4.00;99.90;;;;;;4918923;29;20231;-73
2022/04/11 04:24:37;;;;;;;5.03;2.50;;;4.00;99.90;;;;;;4918890;29;20190;-73
2022/04/11 04:27:04;;;;;;;5.23;2.20;;;4.10;99.90;;;;;;4935624;29;20219;-73
2022/04/11 04:29:30;;;;;;;5.33;2.30;;;4.10;99.90;;;;;;4934682;29;20215;-73
2022/04/11 04:31:56;;;;;;;3.67;1.80;;;4.10;99.90;;;;;;4938638;29;20267;-74
2022/04/11 04:34:21;;;;;;;3.27;2.10;;;4.20;99.90;;;;;;4937397;29;20218;-72
2022/04/11 04:36:48;;;;;;;5.83;2.53;;;4.30;99.90;;;;;;4937936;28;20579;-74
2022/04/11 04:39:13;;;;;;;3.63;2.30;;;4.30;99.90;;;;;;4954351;29;20636;-73
2022/04/11 04:41:39;;;;;;;4.67;2.40;;;4.40;99.90;;;;;;4937243;29;20289;-74
2022/04/11 04:44:08;;;;;;;5.03;2.60;;;4.50;99.90;;;;;;4937285;29;20342;-73
2022/04/11 04:46:34;;;;;;;5.77;2.77;;;4.90;99.90;;;;;;4954075;28;20218;-73
2022/04/11 04:49:00;;;;;;;4.93;2.20;;;6.60;99.90;;;;;;4936295;29;20637;-73
2022/04/11 04:51:26;;;;;;;6.57;2.03;;;8.70;99.90;;;;;;4954927;29;20330;-73
2022/04/11 04:53:51;;;;;;;7.83;2.20;;;10.30;99.90;;;;;;4936976;29;20211;-74
2022/04/11 04:56:17;;;;;;;5.87;2.33;;;11.30;99.90;;;;;;4954119;29;20229;-73
2022/04/11 04:58:45;;;;;;;5.67;2.00;;;12.50;99.90;;;;;;4953241;28;20251;-73
2022/04/11 05:01:11;;;;;;;5.20;2.67;;;11.80;99.90;;;;;;4932985;29;20571;-74
2022/04/11 05:03:36;;;;;;;3.60;2.23;;;10.10;99.90;;;;;;4953196;29;20246;-73
2022/04/11 05:06:02;;;;;;;4.97;2.07;;;9.10;99.90;;;;;;4954112;28;20239;-74
2022/04/11 05:08:27;;;;;;;5.37;2.07;;;9.50;99.90;;;;;;4953297;28;20223;-74
2022/04/11 05:10:53;;;;;;;7.83;2.23;;;9.90;99.90;;;;;;4936911;29;20207;-74
2022/04/11 05:13:18;;;;;;;6.33;2.67;;;11.40;99.90;;;;;;4953983;29;20269;-74
2022/04/11 05:15:46;;;;;;;6.80;2.30;;;11.20;99.90;;;;;;4954445;29;20210;-74
2022/04/11 05:18:12;;;;;;;4.72;2.17;;;13.00;99.90;;;;;;4936026;29;20363;-74
2022/04/11 05:20:37;;;;;;;4.28;2.30;;;14.70;99.90;;;;;;4953541;29;20207;-74
2022/04/11 05:23:03;;;;;;;6.53;2.38;;;15.20;99.90;;;;;;4953975;28;20210;-72
2022/04/11 05:25:28;;;;;;;4.93;2.25;;;16.20;99.90;;;;;;4936425;29;20203;-74
2022/04/11 05:27:54;;;;;;;3.53;1.83;;;17.30;99.90;;;;;;4935972;28;20202;-74
2022/04/11 05:30:19;;;;;;;5.80;2.15;;;17.90;99.90;;;;;;4953705;29;20229;-74
2022/04/11 05:32:45;;;;;;;6.78;2.20;;;18.30;99.90;;;;;;4948712;29;20744;-74
2022/04/11 05:35:11;;;;;;;5.00;2.10;;;18.70;99.90;;;;;;4953764;28;20207;-74
2022/04/11 05:37:36;;;;;;;6.07;2.55;;;18.70;99.90;;;;;;4953378;28;20215;-74
2022/04/11 05:40:03;;;;;;;5.88;2.35;;;19.60;99.90;;;;;;4952642;28;20718;-74
2022/04/11 05:42:29;;;;;;;6.00;2.30;;;19.20;99.90;;;;;;4953861;29;20213;-74
2022/04/11 05:44:54;;;;;;;7.95;2.55;;;19.70;99.90;;;;;;4953348;29;20207;-74
2022/04/11 05:47:20;;;;;;;4.85;2.55;;;19.90;99.90;;;;;;4953614;28;20211;-74
2022/04/11 05:49:45;;;;;;;6.22;2.22;;;19.90;99.20;;;;;;4935691;29;20775;-74
2022/04/11 05:52:15;;;;;;;5.85;2.33;;;20.00;98.80;;;;;;4937753;28;20274;-74
2022/04/11 05:54:40;;;;;;;6.40;2.72;;;20.30;97.50;;;;;;4957229;29;20860;-74
2022/04/11 05:57:06;;;;;;;4.22;1.90;;;20.60;96.70;;;;;;4951220;29;20230;-76
2022/04/11 05:59:31;;;;;;;3.33;1.92;;;21.00;96.10;;;;;;4950753;29;20302;-76
2022/04/11 06:01:57;;;;;;;4.20;2.15;;;20.60;94.70;;;;;;4963686;29;20226;-76
2022/04/11 06:04:23;;;;;;;7.47;2.80;;;20.70;94.60;;;;;;4952309;29;20251;-76
2022/04/11 06:06:48;;;;;;;3.70;1.85;;;20.90;94.30;;;;;;4952266;28;20207;-75
2022/04/11 06:09:14;;;;;;;4.32;2.20;;;20.80;93.70;;;;;;4963479;29;20191;-74
2022/04/11 06:11:39;;;;;;;4.97;2.20;;;20.80;93.40;;;;;;4963681;28;20222;-73
2022/04/11 06:14:05;;;;;;;5.22;2.28;;;21.10;93.00;;;;;;4964035;29;20222;-75
2022/04/11 06:16:31;;;;;;;4.30;2.05;;;20.70;91.90;;;;;;4959095;28;20672;-74
2022/04/11 06:18:57;;;;;;;4.93;2.05;;;20.50;92.10;;;;;;4952840;29;20279;-74
2022/04/11 06:21:23;;;;;;;3.42;2.08;;;20.70;91.70;;;;;;4953906;29;20198;-75
2022/04/11 06:23:48;;;;;;;3.42;2.25;;;20.70;91.40;;;;;;4953326;28;20250;-74
2022/04/11 06:26:14;;;;;;;4.03;2.33;;;20.90;90.70;;;;;;4953293;29;20715;-74
2022/04/11 06:28:41;;;;;;;10.93;4.18;;;21.30;90.50;;;;;;4952109;28;20226;-74
2022/04/11 06:31:08;;;;;;;6.50;3.53;;;21.40;89.70;;;;;;4932653;29;20251;-75
2022/04/11 06:33:36;;;;;;;6.20;3.90;;;20.40;89.10;;;;;;4951923;29;20183;-75
2022/04/11 06:36:01;;;;;;;7.18;2.92;;;20.50;90.10;;;;;;4935932;29;20246;-75
2022/04/11 06:38:27;;;;;;;5.32;3.20;;;21.10;88.30;;;;;;4935019;29;20257;-75
2022/04/11 06:40:52;;;;;;;7.40;3.97;;;20.90;88.30;;;;;;4936022;29;20215;-74
2022/04/11 06:43:41;;;;;;;3.03;2.22;;;20.80;87.00;;;;;;4936058;29;20298;-79
2022/04/11 06:46:07;;;;;;;5.80;2.33;;;20.90;86.80;;;;;;4935805;28;20567;-75
2022/04/11 06:48:32;;;;;;;4.95;2.40;;;21.20;86.00;;;;;;4952677;28;20206;-74
2022/04/11 06:50:58;;;;;;;5.05;2.38;;;20.80;84.60;;;;;;4953020;29;20298;-75
2022/04/11 06:53:23;;;;;;;3.80;1.92;;;20.50;85.00;;;;;;4952711;28;20274;-73
2022/04/11 06:55:49;;;;;;;3.72;2.10;;;20.80;85.10;;;;;;4952660;29;20234;-74
2022/04/11 06:58:16;;;;;;;5.47;2.28;;;21.00;84.10;;;;;;4934737;29;20239;-74
2022/04/11 07:00:42;;;;;;;4.55;2.00;;;21.40;82.60;;;;;;4953146;29;20187;-74
2022/04/11 07:03:08;;;;;;;2.63;1.90;;;20.80;80.80;;;;;;4947556;29;20589;-75
2022/04/11 07:05:34;;;;;;;3.25;2.10;;;20.70;84.00;;;;;;4952604;28;20210;-74
2022/04/11 07:08:00;;;;;;;4.63;1.80;;;20.80;82.00;;;;;;4951993;28;20265;-75
2022/04/11 07:10:25;;;;;;;4.03;2.03;;;21.70;79.70;;;;;;4953477;28;20254;-74
2022/04/11 07:12:51;;;;;;;5.40;2.10;;;21.80;79.40;;;;;;4956922;29;20754;-74
2022/04/11 07:15:16;;;;;;;3.33;2.08;;;22.20;78.70;;;;;;4956847;29;20214;-75
2022/04/11 07:17:42;;;;;;;4.38;1.98;;;22.50;76.60;;;;;;4955707;28;20712;-75
2022/04/11 07:20:08;;;;;;;3.08;1.70;;;22.90;75.60;;;;;;4955905;29;20221;-75
2022/04/11 07:22:34;;;;;;;6.75;2.00;;;22.90;73.50;;;;;;4938710;29;20742;-74
2022/04/11 07:25:01;;;;;;;4.13;1.80;;;23.00;73.40;;;;;;4956478;29;20179;-74
2022/04/11 07:27:26;;;;;;;2.10;1.50;;;22.90;72.40;;;;;;4956320;28;20199;-74
2022/04/11 07:29:52;;;;;;;2.10;1.50;;;24.30;69.70;;;;;;4938381;29;20234;-74
2022/04/11 07:32:17;;;;;;;4.05;1.83;;;24.60;65.60;;;;;;4951277;29;20217;-74
2022/04/11 07:34:43;;;;;;;3.38;1.48;;;24.20;66.00;;;;;;4956359;28;20584;-74
2022/04/11 07:37:09;;;;;;;4.40;1.90;;;23.10;65.20;;;;;;4939158;29;20690;-75
2022/04/11 07:39:35;;;;;;;3.33;1.70;;;21.70;68.40;;;;;;4939207;29;20190;-74
2022/04/11 07:42:01;;;;;;;7.18;1.80;;;21.50;70.10;;;;;;4956922;28;20211;-75
2022/04/11 07:44:27;;;;;;;2.88;1.25;;;21.20;69.90;;;;;;4956149;29;20214;-75
2022/04/11 07:46:52;;;;;;;2.67;1.77;;;21.00;70.20;;;;;;4956241;28;20211;-75
2022/04/11 07:49:18;;;;;;;4.05;1.95;;;21.40;69.70;;;;;;4954503;29;20707;-75
2022/04/11 07:51:43;;;;;;;3.38;1.38;;;21.60;70.20;;;;;;4957297;29;20295;-75
2022/04/11 07:54:09;;;;;;;5.75;1.98;;;21.70;69.50;;;;;;4956371;28;20210;-74
2022/04/11 07:56:34;;;;;;;6.47;2.10;;;22.00;68.60;;;;;;4940611;28;20235;-73
2022/04/11 07:59:00;;;;;;;4.05;1.77;;;22.20;68.70;;;;;;4955600;28;20219;-75
2022/04/11 08:01:27;;;;;;;4.35;2.03;;;22.30;68.20;;;;;;4950799;29;20223;-75
2022/04/11 08:03:52;;;;;;;4.22;2.17;;;21.70;68.80;;;;;;4955240;28;20168;-74
2022/04/11 08:06:18;;;;;;;5.35;1.80;;;22.00;69.40;;;;;;4938476;29;20182;-75
2022/04/11 08:08:47;;;;;;;3.85;1.80;;;22.30;68.10;;;;;;4954282;28;20298;-74
2022/04/11 08:11:14;;;;;;;3.03;1.65;;;22.10;67.00;;;;;;4955339;28;20608;-74
2022/04/11 08:13:40;;;;;;;4.30;1.40;;;21.50;68.70;;;;;;4955630;29;20206;-75
2022/04/11 08:16:05;;;;;;;4.35;1.88;;;21.60;69.00;;;;;;4938405;28;20258;-75
2022/04/11 08:18:31;;;;;;;3.13;1.50;;;21.80;68.60;;;;;;4945026;29;20212;-74
2022/04/11 08:20:57;;;;;;;2.33;1.50;;;21.00;67.50;;;;;;4928021;29;20215;-77
2022/04/11 08:23:22;;;;;;;3.50;1.67;;;21.20;67.70;;;;;;4933934;29;20222;-75
2022/04/11 08:25:49;;;;;;;4.78;2.50;;;21.60;66.60;;;;;;4950578;29;20213;-77
2022/04/11 08:28:15;;;;;;;3.67;2.17;;;21.50;66.30;;;;;;4936815;29;20307;-77
2022/04/11 08:30:41;;;;;;;3.42;1.23;;;21.80;65.80;;;;;;4937824;29;20179;-77
2022/04/11 08:33:06;;;;;;;4.05;1.40;;;21.70;64.90;;;;;;4949454;29;20599;-78
2022/04/11 08:35:32;;;;;;;3.47;1.45;;;21.40;64.50;;;;;;4936814;29;20290;-77
2022/04/11 08:37:58;;;;;;;4.70;1.52;;;21.50;64.80;;;;;;4952293;28;20301;-77
2022/04/11 08:40:23;;;;;;;4.40;1.50;;;21.10;65.00;;;;;;4936076;29;20214;-77
2022/04/11 08:42:50;;;;;;;2.22;1.23;;;20.50;65.30;;;;;;4953235;29;20210;-77
2022/04/11 08:45:17;;;;;;;3.60;1.80;;;21.20;66.10;;;;;;4954964;29;20572;-77
2022/04/11 08:47:43;;;;;;;4.88;1.92;;;21.40;65.70;;;;;;4954118;28;20207;-77
2022/04/11 08:50:10;;;;;;;2.03;1.05;;;21.30;65.60;;;;;;4936822;29;20285;-78
2022/04/11 08:52:37;;;;;;;2.90;1.33;;;21.30;65.40;;;;;;4953716;28;20214;-77
2022/04/11 08:55:03;;;;;;;3.70;1.75;;;21.20;64.60;;;;;;4942826;29;20251;-77
2022/04/11 08:57:29;;;;;;;4.82;1.60;;;20.50;64.90;;;;;;4948038;28;20212;-77
2022/04/11 08:59:55;;;;;;;4.82;1.23;;;20.10;64.60;;;;;;4936520;29;20202;-77
2022/04/11 09:02:31;;;;;;;2.33;1.38;;;20.70;65.00;;;;;;4950696;29;20226;-76
2022/04/11 09:04:57;;;;;;;3.67;1.35;;;19.60;65.00;;;;;;4937042;29;20216;-78
2022/04/11 09:07:23;;;;;;;2.38;0.90;;;19.50;66.20;;;;;;4954033;28;20215;-75
2022/04/11 09:09:49;;;;;;;3.28;1.30;;;19.00;66.60;;;;;;4934989;29;20186;-77
2022/04/11 09:12:17;;;;;;;2.35;1.25;;;18.90;67.30;;;;;;4950825;29;20664;-77
2022/04/11 09:14:43;;;;;;;3.55;1.45;;;17.90;68.10;;;;;;4953859;29;20231;-77
2022/04/11 09:17:09;;;;;;;2.10;0.88;;;18.30;68.30;;;;;;4937068;29;20269;-77
2022/04/11 09:19:35;;;;;;;4.70;2.58;;;18.60;67.90;;;;;;4953210;29;20207;-77
2022/04/11 09:22:02;;;;;;;3.33;1.35;;;18.80;68.10;;;;;;4954042;28;20265;-78
2022/04/11 09:24:29;;;;;;;1.27;0.88;;;18.90;66.80;;;;;;4954372;29;20178;-77
2022/04/11 09:26:55;;;;;;;3.17;1.50;;;17.40;68.40;;;;;;4934795;29;20218;-77
2022/04/11 09:29:22;;;;;;;2.30;1.10;;;17.00;68.60;;;;;;4949580;28;20210;-76
2022/04/11 09:31:49;;;;;;;3.58;2.15;;;16.80;68.30;;;;;;4948765;29;20297;-77
2022/04/11 09:34:16;;;;;;;1.45;1.00;;;16.90;69.30;;;;;;4953813;28;20210;-77
2022/04/11 09:36:58;;;;;;;2.78;1.30;;;16.80;68.30;;;;;;4936574;28;20727;-77
2022/04/11 09:39:26;;;;;;;3.88;2.08;;;16.80;68.90;;;;;;4954623;29;20206;-78
2022/04/11 09:41:52;;;;;;;2.72;1.20;;;17.00;68.60;;;;;;4935992;29;20218;-75
2022/04/11 09:44:25;;;;;;;2.58;1.48;;;17.00;70.40;;;;;;4963520;29;20214;-74
2022/04/11 09:46:52;;;;;;;3.33;1.23;;;17.10;70.10;;;;;;4939040;28;20211;-76
2022/04/11 09:49:18;;;;;;;3.55;1.40;;;17.00;70.60;;;;;;4953364;29;20207;-77
2022/04/11 09:52:04;;;;;;;3.60;1.42;;;17.10;71.20;;;;;;4954419;29;20788;-76
2022/04/11 09:54:30;;;;;;;9.52;5.32;;;17.00;70.20;;;;;;4936364;29;20223;-76
2022/04/11 09:56:58;;;;;;;4.30;2.33;;;17.10;70.80;;;;;;4945368;28;20242;-76
2022/04/11 09:59:24;;;;;;;6.47;2.40;;;17.00;70.50;;;;;;4950293;23;20282;-76
2022/04/11 10:01:52;;;;;;;1.10;0.85;;;17.10;70.60;;;;;;4934252;29;20215;-76
2022/04/11 10:04:19;;;;;;;2.67;1.80;;;16.90;70.80;;;;;;4923568;29;20235;-75
2022/04/11 10:06:45;;;;;;;3.03;0.75;;;16.70;71.20;;;;;;4935075;29;20610;-76
2022/04/11 10:09:13;;;;;;;1.10;0.80;;;16.40;71.10;;;;;;4940682;29;20214;-76
2022/04/11 10:11:42;;;;;;;1.98;1.10;;;15.80;72.20;;;;;;4936443;29;20576;-77
2022/04/11 10:14:11;;;;;;;4.45;1.20;;;16.30;73.40;;;;;;4934119;29;20210;-76
2022/04/11 10:16:42;;;;;;;3.22;1.63;;;16.60;72.60;;;;;;4953454;28;20225;-77
2022/04/11 10:19:08;;;;;;;3.72;1.30;;;16.40;72.80;;;;;;4953665;28;20223;-75
2022/04/11 10:21:41;;;;;;;3.35;2.60;;;16.50;72.50;;;;;;4954835;29;20225;-76
2022/04/11 10:24:26;;;;;;;6.15;3.90;;;16.20;72.30;;;;;;4937043;29;20213;-77
2022/04/11 10:26:53;;;;;;;3.63;2.70;;;16.20;72.50;;;;;;4954043;29;20684;-78
2022/04/11 10:29:36;;;;;;;7.80;5.22;;;16.50;71.60;;;;;;4933570;29;20238;-77
2022/04/11 10:32:13;;;;;;;4.10;2.15;;;16.80;73.10;;;;;;4925014;29;20210;-77
2022/04/11 10:35:00;;;;;;;2.58;1.80;;;16.60;70.90;;;;;;4952840;28;20687;-77
2022/04/11 10:37:28;;;;;;;3.30;1.80;;;16.70;69.50;;;;;;4936028;29;20213;-78
2022/04/11 10:40:16;;;;;;;4.25;2.58;;;16.50;71.20;;;;;;4953051;28;20186;-75
2022/04/11 10:43:08;;;;;;;4.40;1.88;;;16.30;71.50;;;;;;4945510;29;20287;-77
2022/04/11 10:45:34;;;;;;;4.50;2.30;;;16.40;71.50;;;;;;4940536;29;20233;-76
2022/04/11 10:48:01;;;;;;;2.60;1.77;;;16.50;73.60;;;;;;4957939;28;20210;-78
2022/04/11 10:50:34;;;;;;;2.42;1.10;;;16.60;77.50;;;;;;4939765;29;20210;-76
2022/04/11 10:53:24;;;;;;;2.03;1.10;;;16.70;74.60;;;;;;4939854;29;20329;-77
2022/04/11 10:55:55;;;;;;;2.83;1.40;;;16.90;74.70;;;;;;4939971;29;20290;-76
2022/04/11 10:58:23;;;;;;;2.55;1.08;;;17.00;73.20;;;;;;4955767;28;20282;-78
2022/04/11 11:00:51;;;;;;;2.28;1.23;;;16.80;76.60;;;;;;4955752;29;20187;-78
2022/04/11 11:03:17;;;;;;;2.58;1.60;;;16.40;76.60;;;;;;4953344;29;20262;-76
2022/04/11 11:05:50;;;;;;;2.78;1.75;;;16.00;76.70;;;;;;4956292;28;20207;-76
2022/04/11 11:08:17;;;;;;;3.13;1.30;;;15.80;76.90;;;;;;4956605;28;20582;-76
2022/04/11 11:10:48;;;;;;;3.10;1.40;;;16.00;80.80;;;;;;4940423;29;20202;-75
2022/04/11 11:13:43;;;;;;;4.15;1.20;;;16.30;77.30;;;;;;4940512;29;20209;-76
2022/04/11 11:16:11;;;;;;;3.60;1.73;;;16.60;76.00;;;;;;4952372;28;20219;-75
2022/04/11 11:18:46;;;;;;;6.82;2.65;;;15.80;78.70;;;;;;4956434;28;20199;-76
2022/04/11 11:21:15;;;;;;;6.43;2.42;;;15.40;85.70;;;;;;4957607;29;20676;-75
2022/04/11 11:23:41;;;;;;;9.10;2.42;;;14.90;84.40;;;;;;4956733;28;20222;-76
2022/04/11 11:26:15;;;;;;;12.10;3.53;;;15.10;90.90;;;;;;4956959;29;20215;-77
2022/04/11 11:28:44;;;;;;;6.63;2.17;;;15.10;93.10;;;;;;4938037;29;20342;-76
2022/04/11 11:31:10;;;;;;;3.45;1.40;;;15.10;91.20;;;;;;4952675;29;20218;-77
2022/04/11 11:33:36;;;;;;;9.23;2.25;;;15.20;89.40;;;;;;4931434;29;20183;-77
2022/04/11 11:36:03;;;;;;;7.57;2.28;;;15.20;93.80;;;;;;4956880;28;20207;-76
2022/04/11 11:38:31;;;;;;;9.23;1.90;;;15.30;92.80;;;;;;4938370;29;20219;-76
2022/04/11 11:41:00;;;;;;;2.75;1.27;;;15.20;94.10;;;;;;4956740;28;20294;-75
2022/04/11 11:43:27;;;;;;;4.07;1.60;;;15.40;91.10;;;;;;4939519;29;20750;-76
2022/04/11 11:46:00;;;;;;;1.98;1.50;;;15.30;90.10;;;;;;4955985;28;20245;-77
2022/04/11 11:48:28;;;;;;;5.30;1.83;;;15.10;86.10;;;;;;4957047;28;20207;-76
2022/04/11 11:50:55;;;;;;;6.90;2.33;;;15.30;88.60;;;;;;4956085;29;20286;-75
2022/04/11 11:53:22;;;;;;;3.42;1.58;;;15.60;90.10;;;;;;4955543;28;20210;-75
2022/04/11 11:55:58;;;;;;;2.53;1.38;;;15.90;92.50;;;;;;4956335;29;20207;-75
2022/04/11 11:58:37;;;;;;;4.22;1.67;;;16.20;88.30;;;;;;4936063;29;20234;-74
2022/04/11 12:01:04;;;;;;;6.93;1.90;;;16.40;87.60;;;;;;4953011;29;20273;-75
2022/04/11 12:06:25;;;;;;;2.67;1.27;;;16.60;91.00;;;;;;4955537;29;20691;-75
2022/04/11 12:09:01;;;;;;;4.72;1.65;;;16.50;86.00;;;;;;4940129;28;20940;-77
2022/04/11 12:11:28;;;;;;;4.30;1.92;;;16.60;84.50;;;;;;4938197;29;20266;-76
2022/04/11 12:14:09;;;;;;;2.90;1.55;;;15.90;83.80;;;;;;4937874;29;20688;-76
2022/04/11 12:16:38;;;;;;;7.03;2.05;;;15.70;87.60;;;;;;4955017;28;20225;-77
2022/04/11 12:19:06;;;;;;;3.63;1.60;;;15.70;87.70;;;;;;4955388;28;20198;-76
2022/04/11 12:21:44;;;;;;;3.83;1.85;;;15.70;90.60;;;;;;4955415;29;20572;-77
2022/04/11 12:24:11;;;;;;;3.80;1.42;;;15.60;89.60;;;;;;4938084;29;20206;-78
2022/04/11 12:26:39;;;;;;;4.50;1.50;;;15.50;91.00;;;;;;4955712;29;20209;-77
2022/04/11 12:29:10;;;;;;;2.42;1.55;;;15.50;90.20;;;;;;4936896;28;20610;-76
2022/04/11 12:31:37;;;;;;;4.80;1.60;;;15.60;88.00;;;;;;4948765;28;20212;-77
2022/04/11 12:34:11;;;;;;;3.92;1.50;;;15.80;85.20;;;;;;4948251;28;20598;-76
2022/04/11 12:36:36;;;;;;;2.72;1.58;;;15.60;84.70;;;;;;4932497;29;20178;-76
2022/04/11 12:39:13;;;;;;;6.10;2.30;;;15.70;85.20;;;;;;4940686;29;20215;-78
2022/04/11 12:41:49;;;;;;;4.28;2.42;;;15.70;84.30;;;;;;4928150;29;20238;-76
2022/04/11 12:44:21;;;;;;;3.30;1.50;;;15.80;85.50;;;;;;4930338;29;20215;-76
2022/04/11 12:46:56;;;;;;;4.55;1.58;;;15.70;85.10;;;;;;4940695;28;20293;-74
2022/04/11 12:49:22;;;;;;;2.88;1.73;;;15.90;84.70;;;;;;4955321;28;20218;-76
2022/04/11 12:52:03;;;;;;;5.93;2.00;;;15.80;85.10;;;;;;4932175;29;20215;-76
2022/04/11 12:54:39;;;;;;;3.83;1.50;;;15.60;84.10;;;;;;4956692;29;20361;-77